Oudenaarde, Belgium
Current Conditions -  °F | °C
As of 1:25 PM on Wednesday 26 Nov 2014 (Local Time) from EBCV Reporting Station
Overcast Overcast  
Wind Chill: 46°   Ceiling: 1000
Heat Index: 48°   Visibility: 1.6mi
Dew Point: 46°   Wind: 5mph
Humidity: 93%   Direction: 120°ESE
Pressure: 29.88"   Gusts: NA
Location:  50.85°N, 3.61°E
Report Text: EBCV 261225Z AUTO 12004KT 2700 FEW005/// OVC010/// 09/08 Q1012 YLO
Loading
Personal Weather Stations






























Interactive Weather Map New forecast layout! Learn more

10-Day Weather Forecast

Advertisements
Track Severe Weather on mobile